Time;durP1;ratioP1;P1;durP2;ratioP2;P2;SDS_P1;SDS_P2;PMS_P1;PMS_P2;Temp;Humidity;BMP_temperature;BMP_pressure;BME280_temperature;BME280_humidity;BME280_pressure;Samples;Min_cycle;Max_cycle;Signal;HPM_P1;HPM_P2
2023/03/02 00:01:21;;;;;;;9.97;7.10;;;;;;;;;;4996234;28;20506;-71
2023/03/02 00:03:47;;;;;;;12.33;7.50;;;;;;;;;;4996499;28;20419;-69
2023/03/02 00:06:13;;;;;;;8.73;6.03;;;;;;;;;;5013710;28;20909;-69
2023/03/02 00:08:39;;;;;;;11.27;7.30;;;;;;;;;;4996245;28;20212;-69
2023/03/02 00:11:05;;;;;;;15.57;6.57;;;;;;;;;;4996125;28;20419;-69
2023/03/02 00:13:31;;;;;;;11.03;8.10;;;;;;;;;;4996143;28;20410;-69
2023/03/02 00:15:57;;;;;;;11.27;6.87;;;;;;;;;;4996140;28;20184;-69
2023/03/02 00:18:24;;;;;;;9.07;6.77;;;;;;;;;;4996416;28;20449;-70
2023/03/02 00:20:50;;;;;;;11.43;6.33;;;;;;;;;;5013831;28;20257;-70
2023/03/02 00:23:16;;;;;;;10.90;8.10;;;;;;;;;;5013967;28;20900;-70
2023/03/02 00:25:42;;;;;;;9.87;6.20;;;;;;;;;;5014172;28;20208;-70
2023/03/02 00:28:08;;;;;;;11.27;6.07;;;;;;;;;;4996450;28;20466;-70
2023/03/02 00:30:34;;;;;;;9.07;6.57;;;;;;;;;;4998104;28;20446;-70
2023/03/02 00:33:00;;;;;;;10.10;6.40;;;;;;;;;;4997249;28;20183;-70
2023/03/02 00:35:25;;;;;;;10.43;6.90;;;;;;;;;;4997850;28;20214;-68
2023/03/02 00:37:52;;;;;;;12.33;7.40;;;;;;;;;;4997894;28;20215;-70
2023/03/02 00:40:18;;;;;;;10.63;7.73;;;;;;;;;;4997954;28;20183;-70
2023/03/02 00:42:44;;;;;;;12.83;8.40;;;;;;;;;;5019083;28;20481;-70
2023/03/02 00:45:10;;;;;;;9.17;6.90;;;;;;;;;;5019414;28;20415;-69
2023/03/02 00:47:37;;;;;;;10.27;6.90;;;;;;;;;;5018168;28;20219;-69
2023/03/02 00:50:04;;;;;;;10.97;7.73;;;;;;;;;;5005010;28;20215;-70
2023/03/02 00:52:31;;;;;;;10.40;6.63;;;;;;;;;;5016825;28;20454;-70
2023/03/02 00:54:57;;;;;;;11.63;7.70;;;;;;;;;;5014010;28;20956;-70
2023/03/02 00:57:23;;;;;;;11.00;8.00;;;;;;;;;;5019790;28;20431;-70
2023/03/02 00:59:49;;;;;;;10.37;7.57;;;;;;;;;;5000503;28;20414;-70
2023/03/02 01:02:15;;;;;;;11.43;8.00;;;;;;;;;;4999710;28;20418;-70
2023/03/02 01:04:42;;;;;;;9.73;7.87;;;;;;;;;;5016625;28;20255;-70
2023/03/02 01:07:13;;;;;;;14.37;8.43;;;;;;;;;;4999174;28;20648;-70
2023/03/02 01:09:40;;;;;;;11.57;8.03;;;;;;;;;;4999034;28;20541;-70
2023/03/02 01:12:09;;;;;;;13.33;8.40;;;;;;;;;;5016483;28;20427;-70
2023/03/02 01:14:36;;;;;;;10.50;7.83;;;;;;;;;;5018260;28;20414;-70
2023/03/02 01:17:02;;;;;;;12.03;7.53;;;;;;;;;;4999191;28;20526;-70
2023/03/02 01:19:29;;;;;;;14.80;8.17;;;;;;;;;;5018345;28;20426;-70
2023/03/02 01:21:55;;;;;;;12.03;7.83;;;;;;;;;;4999026;28;20449;-71
2023/03/02 01:24:21;;;;;;;12.67;7.33;;;;;;;;;;4998936;28;20929;-70
2023/03/02 01:26:47;;;;;;;11.77;8.60;;;;;;;;;;5016700;28;20678;-70
2023/03/02 01:29:13;;;;;;;11.00;7.77;;;;;;;;;;4998572;28;20203;-70
2023/03/02 01:31:39;;;;;;;9.73;7.57;;;;;;;;;;5016134;28;20442;-70
2023/03/02 01:34:05;;;;;;;10.30;7.47;;;;;;;;;;5016290;28;20180;-71
2023/03/02 01:36:31;;;;;;;12.30;8.23;;;;;;;;;;5015896;28;20836;-70
2023/03/02 01:38:57;;;;;;;12.27;8.30;;;;;;;;;;5015925;28;20418;-70
2023/03/02 01:41:23;;;;;;;13.70;7.90;;;;;;;;;;5016094;28;20407;-71
2023/03/02 01:43:49;;;;;;;10.23;7.37;;;;;;;;;;4998204;28;20188;-70
2023/03/02 01:46:20;;;;;;;8.77;6.97;;;;;;;;;;5015902;28;20437;-70
2023/03/02 01:48:51;;;;;;;13.03;8.07;;;;;;;;;;4997998;28;20562;-70
2023/03/02 01:51:22;;;;;;;13.87;7.80;;;;;;;;;;5015539;28;20418;-70
2023/03/02 01:53:50;;;;;;;11.70;6.77;;;;;;;;;;5016060;28;20415;-70
2023/03/02 01:56:18;;;;;;;11.67;7.73;;;;;;;;;;5015706;28;20497;-70
2023/03/02 01:58:45;;;;;;;15.80;8.13;;;;;;;;;;5015311;28;20434;-71
2023/03/02 02:01:14;;;;;;;11.87;8.30;;;;;;;;;;5015736;28;20415;-70
2023/03/02 02:03:44;;;;;;;11.77;7.77;;;;;;;;;;5015357;28;20426;-69
2023/03/02 02:06:16;;;;;;;11.10;8.03;;;;;;;;;;5015268;28;20411;-70
2023/03/02 02:08:42;;;;;;;12.33;8.27;;;;;;;;;;4997556;28;20828;-71
2023/03/02 02:11:08;;;;;;;11.17;7.40;;;;;;;;;;4997479;28;20510;-70
2023/03/02 02:13:34;;;;;;;12.43;8.17;;;;;;;;;;4997532;28;20263;-70
2023/03/02 02:16:00;;;;;;;13.77;8.37;;;;;;;;;;4997556;28;20430;-70
2023/03/02 02:18:26;;;;;;;11.47;7.30;;;;;;;;;;5014985;28;20204;-70
2023/03/02 02:20:53;;;;;;;10.37;6.97;;;;;;;;;;4997472;28;20188;-70
2023/03/02 02:23:28;;;;;;;11.73;7.50;;;;;;;;;;5015442;28;20207;-70
2023/03/02 02:25:54;;;;;;;10.17;7.83;;;;;;;;;;5015414;28;20410;-70
2023/03/02 02:28:22;;;;;;;12.90;7.20;;;;;;;;;;5014838;28;20466;-70
2023/03/02 02:30:50;;;;;;;14.13;7.43;;;;;;;;;;4997496;28;20179;-70
2023/03/02 02:33:18;;;;;;;12.27;7.40;;;;;;;;;;4997920;28;20429;-69
2023/03/02 02:35:45;;;;;;;13.37;8.10;;;;;;;;;;5015348;28;20415;-69
2023/03/02 02:38:13;;;;;;;15.43;8.20;;;;;;;;;;5015328;28;20427;-69
2023/03/02 02:40:42;;;;;;;11.17;6.80;;;;;;;;;;5015208;28;20464;-69
2023/03/02 02:43:11;;;;;;;11.30;7.40;;;;;;;;;;5015719;28;20411;-69
2023/03/02 02:45:37;;;;;;;9.57;6.37;;;;;;;;;;4996891;28;20465;-69
2023/03/02 02:48:03;;;;;;;10.27;6.63;;;;;;;;;;4996462;28;20486;-70
2023/03/02 02:50:34;;;;;;;12.97;7.80;;;;;;;;;;4996920;28;20194;-69
2023/03/02 02:53:09;;;;;;;14.17;7.03;;;;;;;;;;5014344;28;20198;-69
2023/03/02 02:55:35;;;;;;;12.67;8.03;;;;;;;;;;5014303;28;20407;-69
2023/03/02 02:58:08;;;;;;;17.57;8.30;;;;;;;;;;5014731;28;20445;-69
2023/03/02 03:00:35;;;;;;;15.67;7.43;;;;;;;;;;5015019;28;20401;-69
2023/03/02 03:03:05;;;;;;;15.80;5.93;;;;;;;;;;5014569;28;20418;-69
2023/03/02 03:05:31;;;;;;;11.67;7.57;;;;;;;;;;5014430;28;20419;-69
2023/03/02 03:08:08;;;;;;;13.80;7.73;;;;;;;;;;5014440;28;20501;-69
2023/03/02 03:10:38;;;;;;;15.37;8.40;;;;;;;;;;4996680;28;20176;-69
2023/03/02 03:13:05;;;;;;;11.00;7.33;;;;;;;;;;4996916;28;20490;-69
2023/03/02 03:15:31;;;;;;;17.20;7.33;;;;;;;;;;4996601;28;20431;-70
2023/03/02 03:17:57;;;;;;;9.60;6.83;;;;;;;;;;5014232;28;20932;-70
2023/03/02 03:20:24;;;;;;;13.90;8.40;;;;;;;;;;5014267;28;20180;-69
2023/03/02 03:22:52;;;;;;;10.87;7.83;;;;;;;;;;5014280;28;20928;-69
2023/03/02 03:25:18;;;;;;;9.50;6.67;;;;;;;;;;5014428;28;20434;-69
2023/03/02 03:27:44;;;;;;;14.70;8.10;;;;;;;;;;4996429;28;20512;-70
2023/03/02 03:30:11;;;;;;;11.57;7.57;;;;;;;;;;5014620;28;20395;-70
2023/03/02 03:32:37;;;;;;;16.03;8.17;;;;;;;;;;5014193;28;20516;-69
2023/03/02 03:35:07;;;;;;;14.30;7.47;;;;;;;;;;5014040;28;20409;-70
2023/03/02 03:37:33;;;;;;;14.00;8.87;;;;;;;;;;4998157;28;20531;-69
2023/03/02 03:39:59;;;;;;;21.73;8.70;;;;;;;;;;5026662;28;20501;-70
2023/03/02 03:42:25;;;;;;;12.80;8.63;;;;;;;;;;5009739;28;20792;-70
2023/03/02 03:44:51;;;;;;;14.40;8.53;;;;;;;;;;5018196;28;20664;-70
2023/03/02 03:47:17;;;;;;;12.97;7.83;;;;;;;;;;4997614;28;20222;-70
2023/03/02 03:49:43;;;;;;;11.40;7.90;;;;;;;;;;5014589;28;20675;-68
2023/03/02 03:52:09;;;;;;;10.80;7.53;;;;;;;;;;5014336;28;20180;-69
2023/03/02 03:54:35;;;;;;;10.63;7.23;;;;;;;;;;5014023;28;20407;-70
2023/03/02 03:57:01;;;;;;;12.93;7.50;;;;;;;;;;4996134;28;20440;-69
2023/03/02 03:59:27;;;;;;;10.73;7.20;;;;;;;;;;4996331;28;20528;-69
2023/03/02 04:01:57;;;;;;;10.53;7.10;;;;;;;;;;5014053;28;20180;-70
2023/03/02 04:04:25;;;;;;;11.30;7.77;;;;;;;;;;5013669;28;20411;-70
2023/03/02 04:06:51;;;;;;;11.17;7.70;;;;;;;;;;5013748;28;20518;-69
2023/03/02 04:09:18;;;;;;;13.10;7.77;;;;;;;;;;5013677;28;20458;-69
2023/03/02 04:11:45;;;;;;;9.93;6.97;;;;;;;;;;4995912;28;20501;-69
2023/03/02 04:14:11;;;;;;;11.73;7.40;;;;;;;;;;4995915;28;20450;-69
2023/03/02 04:16:38;;;;;;;12.10;7.40;;;;;;;;;;5015378;28;20476;-70
2023/03/02 04:19:08;;;;;;;10.67;7.50;;;;;;;;;;4999626;28;20419;-69
2023/03/02 04:21:34;;;;;;;9.87;7.03;;;;;;;;;;5017304;28;20422;-68
2023/03/02 04:24:00;;;;;;;9.67;6.97;;;;;;;;;;5017172;28;20414;-70
2023/03/02 04:26:26;;;;;;;11.23;7.63;;;;;;;;;;4999754;28;20492;-71
2023/03/02 04:28:52;;;;;;;10.60;6.43;;;;;;;;;;5017138;28;20544;-69
2023/03/02 04:31:18;;;;;;;10.43;7.30;;;;;;;;;;4999391;28;20987;-70
2023/03/02 04:33:44;;;;;;;12.37;6.93;;;;;;;;;;4999605;28;20407;-69
2023/03/02 04:36:10;;;;;;;11.47;6.87;;;;;;;;;;5017598;28;20180;-70
2023/03/02 04:38:36;;;;;;;15.73;7.73;;;;;;;;;;5016779;28;20199;-70
2023/03/02 04:41:02;;;;;;;9.90;6.30;;;;;;;;;;5016755;28;20180;-69
2023/03/02 04:43:28;;;;;;;12.40;6.87;;;;;;;;;;4999611;28;20213;-70
2023/03/02 04:45:54;;;;;;;9.63;6.97;;;;;;;;;;5016833;28;20893;-69
2023/03/02 04:48:21;;;;;;;13.40;7.27;;;;;;;;;;5016378;28;20266;-68
2023/03/02 04:50:47;;;;;;;14.40;7.63;;;;;;;;;;5017024;28;20172;-69
2023/03/02 04:53:13;;;;;;;10.43;6.63;;;;;;;;;;5016942;28;20418;-69
2023/03/02 04:55:39;;;;;;;11.07;6.77;;;;;;;;;;4999200;28;20184;-69
2023/03/02 04:58:06;;;;;;;12.60;7.53;;;;;;;;;;5017163;28;20431;-69
2023/03/02 05:00:34;;;;;;;14.40;7.47;;;;;;;;;;5016514;28;20422;-70
2023/03/02 05:03:00;;;;;;;10.03;7.53;;;;;;;;;;4998808;28;20502;-69
2023/03/02 05:05:26;;;;;;;9.33;6.00;;;;;;;;;;5016536;28;20425;-69
2023/03/02 05:07:52;;;;;;;15.93;7.90;;;;;;;;;;5016307;28;20470;-69
2023/03/02 05:10:19;;;;;;;9.10;6.07;;;;;;;;;;5017076;28;20407;-70
2023/03/02 05:12:56;;;;;;;11.13;5.47;;;;;;;;;;5016772;28;20406;-69
2023/03/02 05:15:30;;;;;;;11.83;8.07;;;;;;;;;;4998691;28;20419;-69
2023/03/02 05:17:57;;;;;;;10.87;6.77;;;;;;;;;;4998609;28;20444;-69
2023/03/02 05:20:26;;;;;;;13.17;8.67;;;;;;;;;;4998655;28;20826;-69
2023/03/02 05:22:53;;;;;;;13.57;8.30;;;;;;;;;;4998567;28;20423;-69
2023/03/02 05:25:19;;;;;;;12.60;8.33;;;;;;;;;;5016138;28;20454;-69
2023/03/02 05:27:45;;;;;;;15.33;8.97;;;;;;;;;;4997824;28;20438;-69
2023/03/02 05:30:11;;;;;;;12.33;8.73;;;;;;;;;;4998226;28;20187;-70
2023/03/02 05:32:37;;;;;;;14.03;8.33;;;;;;;;;;5015905;28;20180;-69
2023/03/02 05:35:03;;;;;;;15.10;8.40;;;;;;;;;;5015768;28;20422;-69
2023/03/02 05:37:29;;;;;;;11.93;7.20;;;;;;;;;;5015788;28;20234;-69
2023/03/02 05:39:55;;;;;;;16.77;7.70;;;;;;;;;;5016147;28;20411;-69
2023/03/02 05:42:21;;;;;;;10.97;7.77;;;;;;;;;;5015611;28;20183;-70
2023/03/02 05:44:47;;;;;;;11.40;6.90;;;;;;;;;;5015642;28;20258;-69
2023/03/02 05:47:12;;;;;;;10.00;6.93;;;;;;;;;;5015427;28;20237;-70
2023/03/02 05:49:38;;;;;;;8.73;6.57;;;;;;;;;;5015660;28;20214;-69
2023/03/02 05:52:04;;;;;;;10.63;6.63;;;;;;;;;;5015540;28;20183;-69
2023/03/02 05:54:31;;;;;;;9.47;6.13;;;;;;;;;;5015978;28;20170;-69
2023/03/02 05:56:57;;;;;;;13.40;7.97;;;;;;;;;;5015849;28;20530;-71
2023/03/02 05:59:23;;;;;;;9.90;6.77;;;;;;;;;;4997824;28;20450;-69
2023/03/02 06:01:49;;;;;;;12.37;7.33;;;;;;;;;;4998114;28;20505;-69
2023/03/02 06:04:15;;;;;;;13.63;7.70;;;;;;;;;;4997959;28;20425;-69
2023/03/02 06:06:41;;;;;;;10.63;6.47;;;;;;;;;;4997701;28;20458;-69
2023/03/02 06:09:07;;;;;;;11.57;7.27;;;;;;;;;;5015409;28;20458;-68
2023/03/02 06:11:33;;;;;;;13.20;7.30;;;;;;;;;;5042528;23;20309;-68
2023/03/02 06:13:59;;;;;;;10.37;7.17;;;;;;;;;;5034748;28;20179;-68
2023/03/02 06:16:25;;;;;;;15.80;7.07;;;;;;;;;;5034677;28;20263;-68
2023/03/02 06:18:51;;;;;;;15.27;6.77;;;;;;;;;;5034555;28;20182;-69
2023/03/02 06:21:17;;;;;;;14.73;7.50;;;;;;;;;;5034550;28;20245;-69
2023/03/02 06:23:43;;;;;;;10.67;7.47;;;;;;;;;;5034506;28;20179;-68
2023/03/02 06:26:10;;;;;;;10.23;8.07;;;;;;;;;;5034351;28;20179;-68
2023/03/02 06:28:36;;;;;;;10.50;5.07;;;;;;;;;;5034224;28;20550;-68
2023/03/02 06:31:02;;;;;;;11.40;7.07;;;;;;;;;;5016612;28;20441;-67
2023/03/02 06:33:29;;;;;;;10.13;7.67;;;;;;;;;;5034295;28;20425;-68
2023/03/02 06:35:55;;;;;;;13.87;7.27;;;;;;;;;;5034747;28;20203;-68
2023/03/02 06:38:21;;;;;;;11.53;7.40;;;;;;;;;;5015810;28;20919;-68
2023/03/02 06:40:47;;;;;;;10.77;7.30;;;;;;;;;;5034066;28;20209;-67
2023/03/02 06:43:15;;;;;;;10.03;6.43;;;;;;;;;;5033977;28;20563;-68
2023/03/02 06:45:41;;;;;;;10.70;7.43;;;;;;;;;;5034460;28;20417;-68
2023/03/02 06:48:07;;;;;;;11.80;7.73;;;;;;;;;;5016147;28;20467;-68
2023/03/02 06:50:33;;;;;;;16.73;7.87;;;;;;;;;;5033914;28;20195;-68
2023/03/02 06:52:59;;;;;;;16.47;8.70;;;;;;;;;;5033839;28;20642;-68
2023/03/02 06:55:25;;;;;;;12.37;8.10;;;;;;;;;;5034111;28;20406;-68
2023/03/02 06:57:51;;;;;;;16.43;9.40;;;;;;;;;;5033747;28;20421;-68
2023/03/02 07:00:23;;;;;;;24.10;11.43;;;;;;;;;;5016061;28;20261;-68
2023/03/02 07:02:49;;;;;;;24.23;12.03;;;;;;;;;;5033953;28;20588;-69
2023/03/02 07:05:15;;;;;;;28.07;12.63;;;;;;;;;;5016027;28;20508;-67
2023/03/02 07:07:41;;;;;;;19.83;10.07;;;;;;;;;;5015876;28;20920;-68
2023/03/02 07:10:08;;;;;;;20.23;9.73;;;;;;;;;;5033641;28;20445;-69
2023/03/02 07:12:34;;;;;;;14.57;8.17;;;;;;;;;;5015818;28;20175;-69
2023/03/02 07:15:00;;;;;;;11.17;7.50;;;;;;;;;;5033397;28;20406;-68
2023/03/02 07:17:26;;;;;;;13.07;7.63;;;;;;;;;;5033831;28;20421;-68
2023/03/02 07:19:52;;;;;;;9.73;6.63;;;;;;;;;;5033488;28;20179;-67
2023/03/02 07:22:18;;;;;;;13.90;7.70;;;;;;;;;;5033267;28;20665;-66
2023/03/02 07:24:44;;;;;;;11.83;6.87;;;;;;;;;;5015596;28;20661;-68
2023/03/02 07:27:10;;;;;;;13.60;7.10;;;;;;;;;;5033351;28;20183;-65
2023/03/02 07:29:36;;;;;;;20.17;8.80;;;;;;;;;;5033314;28;20294;-69
2023/03/02 07:32:02;;;;;;;14.57;7.10;;;;;;;;;;5033478;28;20195;-66
2023/03/02 07:34:28;;;;;;;16.33;7.60;;;;;;;;;;5033228;28;20186;-66
2023/03/02 07:36:54;;;;;;;13.40;7.50;;;;;;;;;;5033425;28;20718;-66
2023/03/02 07:39:20;;;;;;;11.60;7.23;;;;;;;;;;5033300;28;20266;-66
2023/03/02 07:41:46;;;;;;;12.73;7.83;;;;;;;;;;5033182;28;20199;-64
2023/03/02 07:44:12;;;;;;;16.40;7.17;;;;;;;;;;5032913;28;20546;-64
2023/03/02 07:46:38;;;;;;;11.13;7.23;;;;;;;;;;5033202;28;20414;-64
2023/03/02 07:49:04;;;;;;;11.10;6.97;;;;;;;;;;5033171;28;20449;-64
2023/03/02 07:51:30;;;;;;;14.10;7.17;;;;;;;;;;5036608;28;20290;-64
2023/03/02 07:53:56;;;;;;;10.17;6.77;;;;;;;;;;5037124;28;20220;-64
2023/03/02 07:56:22;;;;;;;10.47;6.70;;;;;;;;;;5019525;28;20210;-64
2023/03/02 07:58:47;;;;;;;13.87;7.00;;;;;;;;;;5037252;28;20182;-65
2023/03/02 08:01:13;;;;;;;10.70;7.10;;;;;;;;;;5019314;28;20293;-63
2023/03/02 08:03:39;;;;;;;8.10;6.40;;;;;;;;;;5036922;28;20175;-64
2023/03/02 08:06:06;;;;;;;9.47;6.20;;;;;;;;;;5019207;28;20281;-65
2023/03/02 08:08:32;;;;;;;15.03;7.70;;;;;;;;;;5019271;28;20209;-64
2023/03/02 08:11:08;;;;;;;15.97;6.97;;;;;;;;;;5037344;28;20214;-64
2023/03/02 08:13:34;;;;;;;13.80;7.00;;;;;;;;;;5037837;28;20641;-64
2023/03/02 08:16:04;;;;;;;11.40;6.70;;;;;;;;;;5037272;28;20409;-65
2023/03/02 08:18:30;;;;;;;14.70;6.50;;;;;;;;;;5019336;28;20214;-65
2023/03/02 08:20:56;;;;;;;13.10;7.40;;;;;;;;;;5037127;28;20203;-64
2023/03/02 08:23:22;;;;;;;11.93;7.53;;;;;;;;;;5036516;28;20179;-65
2023/03/02 08:25:48;;;;;;;8.73;6.60;;;;;;;;;;5018932;28;20183;-66
2023/03/02 08:28:14;;;;;;;16.47;7.37;;;;;;;;;;5036482;28;20209;-66
2023/03/02 08:30:40;;;;;;;9.63;6.97;;;;;;;;;;5018697;28;20203;-65
2023/03/02 08:33:06;;;;;;;14.20;7.63;;;;;;;;;;5036265;28;20175;-64
2023/03/02 08:35:32;;;;;;;11.87;7.20;;;;;;;;;;5036460;28;20233;-65
2023/03/02 08:38:01;;;;;;;15.73;5.97;;;;;;;;;;5036326;28;20183;-65
2023/03/02 08:40:27;;;;;;;10.80;5.97;;;;;;;;;;5036055;28;20221;-65
2023/03/02 08:42:56;;;;;;;7.77;5.80;;;;;;;;;;5036137;28;20645;-65
2023/03/02 08:45:25;;;;;;;6.37;4.00;;;;;;;;;;5018337;28;20187;-65
2023/03/02 08:47:54;;;;;;;14.67;7.17;;;;;;;;;;5036507;28;20265;-66
2023/03/02 08:50:20;;;;;;;9.17;7.30;;;;;;;;;;5035924;28;20669;-65
2023/03/02 08:52:46;;;;;;;10.87;6.53;;;;;;;;;;5036320;28;20183;-65
2023/03/02 08:55:12;;;;;;;11.13;6.97;;;;;;;;;;5035830;28;20183;-65
2023/03/02 08:57:40;;;;;;;8.60;6.27;;;;;;;;;;5018183;28;20182;-64
2023/03/02 09:00:08;;;;;;;9.93;6.80;;;;;;;;;;5035786;28;20596;-64
2023/03/02 09:02:34;;;;;;;8.53;5.90;;;;;;;;;;5017514;28;20656;-65
2023/03/02 09:05:00;;;;;;;8.47;5.17;;;;;;;;;;5035861;28;20624;-66
2023/03/02 09:07:26;;;;;;;9.73;6.73;;;;;;;;;;5035787;28;20184;-66
2023/03/02 09:09:52;;;;;;;8.17;5.60;;;;;;;;;;5017704;28;20470;-66
2023/03/02 09:12:18;;;;;;;14.47;6.40;;;;;;;;;;5035467;28;20309;-66
2023/03/02 09:14:44;;;;;;;10.90;5.67;;;;;;;;;;5035613;28;20551;-66
2023/03/02 09:17:11;;;;;;;12.10;7.27;;;;;;;;;;5017781;28;20213;-66
2023/03/02 09:19:40;;;;;;;13.30;7.13;;;;;;;;;;5035636;28;20232;-66
2023/03/02 09:22:07;;;;;;;9.53;6.73;;;;;;;;;;5017803;28;20224;-66
2023/03/02 09:24:33;;;;;;;9.03;6.73;;;;;;;;;;5035984;28;20258;-66
2023/03/02 09:26:59;;;;;;;11.80;7.40;;;;;;;;;;5035502;28;20549;-64
2023/03/02 09:29:25;;;;;;;12.73;6.60;;;;;;;;;;5035238;28;20211;-64
2023/03/02 09:31:51;;;;;;;10.93;6.83;;;;;;;;;;5017556;28;20298;-66
2023/03/02 09:34:17;;;;;;;8.97;5.87;;;;;;;;;;5035331;28;20553;-66
2023/03/02 09:36:43;;;;;;;17.43;7.20;;;;;;;;;;5035249;28;20179;-64
2023/03/02 09:39:11;;;;;;;9.17;4.97;;;;;;;;;;5035420;28;20600;-65
2023/03/02 09:41:58;;;;;;;8.67;6.10;;;;;;;;;;5035010;28;20199;-65
2023/03/02 09:44:43;;;;;;;9.80;6.90;;;;;;;;;;5035106;28;20175;-65
2023/03/02 09:47:15;;;;;;;10.60;5.87;;;;;;;;;;5035304;28;20187;-65
2023/03/02 09:49:52;;;;;;;7.40;5.37;;;;;;;;;;5034959;28;20657;-64
2023/03/02 09:52:21;;;;;;;10.73;5.27;;;;;;;;;;5034798;28;20249;-65
2023/03/02 09:54:47;;;;;;;11.07;5.90;;;;;;;;;;5035076;28;20183;-64
2023/03/02 09:57:21;;;;;;;7.53;5.23;;;;;;;;;;5034657;28;20210;-64
2023/03/02 09:59:50;;;;;;;11.97;6.50;;;;;;;;;;5035194;28;20171;-64
2023/03/02 10:02:23;;;;;;;8.60;5.83;;;;;;;;;;5016801;28;20681;-64
2023/03/02 10:04:51;;;;;;;14.47;6.13;;;;;;;;;;5034697;28;20173;-64
2023/03/02 10:07:23;;;;;;;10.50;6.10;;;;;;;;;;5035161;28;20522;-64
2023/03/02 10:09:49;;;;;;;8.47;6.13;;;;;;;;;;5034694;28;20206;-64
2023/03/02 10:12:36;;;;;;;10.33;6.90;;;;;;;;;;5034367;28;20272;-64
2023/03/02 10:15:05;;;;;;;10.50;7.00;;;;;;;;;;5034706;28;20189;-64
2023/03/02 10:17:31;;;;;;;12.03;6.77;;;;;;;;;;5034438;28;20176;-64
2023/03/02 10:20:02;;;;;;;10.80;7.00;;;;;;;;;;5034118;28;20529;-64
2023/03/02 10:22:54;;;;;;;13.90;7.57;;;;;;;;;;5034496;28;20171;-65
2023/03/02 10:25:33;;;;;;;10.80;6.53;;;;;;;;;;5013670;28;20191;-64
2023/03/02 10:28:12;;;;;;;15.33;8.23;;;;;;;;;;5034258;28;20167;-64
2023/03/02 10:30:38;;;;;;;12.27;7.90;;;;;;;;;;5034061;28;20568;-65
2023/03/02 10:33:16;;;;;;;11.47;7.37;;;;;;;;;;5034291;28;20709;-64
2023/03/02 10:35:52;;;;;;;8.97;7.07;;;;;;;;;;5033899;28;20179;-65
2023/03/02 10:38:22;;;;;;;13.23;7.77;;;;;;;;;;5034186;28;20171;-64
2023/03/02 10:41:00;;;;;;;8.43;5.87;;;;;;;;;;5034012;28;20218;-64
2023/03/02 10:43:31;;;;;;;13.07;7.80;;;;;;;;;;5016246;28;20206;-64
2023/03/02 10:46:08;;;;;;;14.00;7.57;;;;;;;;;;5015999;28;20188;-64
2023/03/02 10:48:47;;;;;;;7.80;5.93;;;;;;;;;;5033754;28;20199;-65
2023/03/02 10:51:20;;;;;;;11.63;7.67;;;;;;;;;;5016169;28;20226;-64
2023/03/02 10:53:46;;;;;;;11.37;7.87;;;;;;;;;;5016798;28;20179;-65
2023/03/02 10:56:21;;;;;;;11.07;7.83;;;;;;;;;;5016275;28;20671;-64
2023/03/02 10:58:47;;;;;;;11.67;7.23;;;;;;;;;;5033599;28;20174;-64
2023/03/02 11:01:18;;;;;;;14.70;6.80;;;;;;;;;;5033546;28;20199;-63
2023/03/02 11:03:56;;;;;;;13.57;7.90;;;;;;;;;;5033640;28;20182;-65
2023/03/02 11:06:23;;;;;;;9.83;7.40;;;;;;;;;;5033554;28;20237;-64
2023/03/02 11:08:57;;;;;;;10.37;6.73;;;;;;;;;;5033543;28;20283;-64
2023/03/02 11:11:24;;;;;;;10.63;7.23;;;;;;;;;;5033391;28;20217;-65
2023/03/02 11:13:50;;;;;;;9.47;7.43;;;;;;;;;;5033331;28;20590;-64
2023/03/02 11:16:16;;;;;;;10.30;7.53;;;;;;;;;;5033837;28;20206;-65
2023/03/02 11:18:46;;;;;;;12.20;7.70;;;;;;;;;;5034238;28;20183;-66
2023/03/02 11:21:16;;;;;;;9.23;6.13;;;;;;;;;;5033977;28;20267;-66
2023/03/02 11:23:45;;;;;;;11.70;8.27;;;;;;;;;;5016518;28;20179;-65
2023/03/02 11:26:17;;;;;;;10.90;7.37;;;;;;;;;;5033424;28;20183;-65
2023/03/02 11:28:47;;;;;;;15.07;8.13;;;;;;;;;;5015855;28;20285;-65
2023/03/02 11:31:17;;;;;;;11.77;7.37;;;;;;;;;;5034215;28;20195;-65
2023/03/02 11:33:50;;;;;;;11.53;4.93;;;;;;;;;;5033711;28;20175;-65
2023/03/02 11:36:21;;;;;;;11.70;6.40;;;;;;;;;;5033352;28;20648;-65
2023/03/02 11:38:50;;;;;;;33.03;6.17;;;;;;;;;;5015268;28;20652;-65
2023/03/02 11:41:26;;;;;;;12.17;7.47;;;;;;;;;;5033063;28;20207;-65
2023/03/02 11:43:55;;;;;;;9.20;7.37;;;;;;;;;;5015450;28;20181;-65
2023/03/02 11:46:23;;;;;;;11.40;7.83;;;;;;;;;;5033222;28;20258;-65
2023/03/02 11:48:50;;;;;;;9.57;7.07;;;;;;;;;;5015368;28;20206;-65
2023/03/02 11:51:22;;;;;;;8.67;6.90;;;;;;;;;;5015006;28;20199;-64
2023/03/02 11:54:10;;;;;;;11.07;6.27;;;;;;;;;;5033098;28;20175;-65
2023/03/02 11:56:38;;;;;;;14.50;6.37;;;;;;;;;;5014958;28;20203;-65
2023/03/02 11:59:18;;;;;;;10.13;6.50;;;;;;;;;;5033170;28;20523;-65
2023/03/02 12:01:46;;;;;;;12.67;7.97;;;;;;;;;;5032797;28;20675;-65
2023/03/02 12:04:31;;;;;;;12.27;8.07;;;;;;;;;;5032838;28;20227;-65
2023/03/02 12:06:57;;;;;;;14.30;8.77;;;;;;;;;;5032720;28;20175;-65
2023/03/02 12:09:23;;;;;;;11.03;7.53;;;;;;;;;;5032758;28;20576;-65
2023/03/02 12:11:57;;;;;;;10.13;6.57;;;;;;;;;;5032884;28;20214;-64
2023/03/02 12:14:28;;;;;;;12.20;6.40;;;;;;;;;;5032930;28;20302;-65
2023/03/02 12:17:05;;;;;;;10.27;7.47;;;;;;;;;;5033327;28;20159;-65
2023/03/02 12:19:42;;;;;;;11.07;7.87;;;;;;;;;;5033318;28;20683;-64
2023/03/02 12:22:11;;;;;;;10.33;7.90;;;;;;;;;;5015099;28;20207;-65
2023/03/02 12:24:38;;;;;;;10.80;7.37;;;;;;;;;;5015025;28;20317;-65
2023/03/02 12:27:05;;;;;;;11.47;6.00;;;;;;;;;;5033211;28;20748;-65
2023/03/02 12:29:41;;;;;;;7.80;6.20;;;;;;;;;;5032479;28;20577;-65
2023/03/02 12:32:23;;;;;;;9.03;6.43;;;;;;;;;;5014909;28;20202;-65
2023/03/02 12:35:07;;;;;;;8.40;6.60;;;;;;;;;;5032616;28;20170;-64
2023/03/02 12:37:46;;;;;;;8.53;5.77;;;;;;;;;;5034299;28;20637;-64
2023/03/02 12:40:24;;;;;;;12.97;6.83;;;;;;;;;;5018385;28;20179;-64
2023/03/02 12:42:56;;;;;;;14.03;6.10;;;;;;;;;;5036635;28;20250;-63
2023/03/02 12:45:27;;;;;;;7.83;4.73;;;;;;;;;;5018381;28;20179;-63
2023/03/02 12:48:04;;;;;;;7.70;5.80;;;;;;;;;;5018113;28;20656;-64
2023/03/02 12:50:31;;;;;;;8.47;5.93;;;;;;;;;;5018115;28;20230;-64
2023/03/02 12:52:58;;;;;;;7.57;5.20;;;;;;;;;;5036248;28;20186;-64
2023/03/02 12:55:24;;;;;;;10.27;6.67;;;;;;;;;;5035937;28;20182;-66
2023/03/02 12:57:51;;;;;;;11.67;6.77;;;;;;;;;;5035826;28;20175;-64
2023/03/02 13:00:20;;;;;;;11.37;5.67;;;;;;;;;;5035819;28;20214;-64
2023/03/02 13:02:47;;;;;;;7.30;5.63;;;;;;;;;;5017955;28;20187;-65
2023/03/02 13:05:18;;;;;;;8.50;5.47;;;;;;;;;;5036063;28;20263;-64
2023/03/02 13:07:47;;;;;;;9.07;6.23;;;;;;;;;;5035989;28;20191;-64
2023/03/02 13:10:18;;;;;;;13.33;6.83;;;;;;;;;;5017679;28;20297;-64
2023/03/02 13:12:45;;;;;;;7.53;5.57;;;;;;;;;;5035831;28;20167;-64
2023/03/02 13:15:14;;;;;;;10.47;5.43;;;;;;;;;;5018126;28;20266;-64
2023/03/02 13:17:40;;;;;;;11.73;7.20;;;;;;;;;;5018228;28;20180;-67
2023/03/02 13:20:07;;;;;;;10.87;6.00;;;;;;;;;;5035688;28;20180;-65
2023/03/02 13:22:33;;;;;;;10.10;6.27;;;;;;;;;;5035846;28;20233;-65
2023/03/02 13:25:02;;;;;;;11.20;5.17;;;;;;;;;;5035433;28;20183;-64
2023/03/02 13:27:28;;;;;;;8.33;6.67;;;;;;;;;;5035639;28;20179;-65
2023/03/02 13:29:55;;;;;;;11.83;7.30;;;;;;;;;;5035645;28;20229;-66
2023/03/02 13:32:21;;;;;;;8.77;6.77;;;;;;;;;;5017630;28;20252;-65
2023/03/02 13:34:52;;;;;;;8.33;6.43;;;;;;;;;;5035533;28;20653;-66
2023/03/02 13:37:42;;;;;;;13.30;6.93;;;;;;;;;;5036196;28;20519;-65
2023/03/02 13:40:31;;;;;;;8.93;6.67;;;;;;;;;;5018522;28;20546;-66
2023/03/02 13:42:58;;;;;;;9.70;6.47;;;;;;;;;;5036046;28;20205;-65
2023/03/02 13:45:28;;;;;;;10.83;6.90;;;;;;;;;;5035139;28;20258;-66
2023/03/02 13:47:55;;;;;;;9.27;6.23;;;;;;;;;;5017008;28;20187;-66
2023/03/02 13:50:21;;;;;;;7.77;5.97;;;;;;;;;;5035077;28;20195;-65
2023/03/02 13:52:47;;;;;;;10.73;7.07;;;;;;;;;;5035343;28;20258;-65
2023/03/02 13:55:14;;;;;;;9.80;6.80;;;;;;;;;;5035342;28;20687;-66
2023/03/02 13:57:40;;;;;;;10.30;6.70;;;;;;;;;;5017116;28;20186;-64
2023/03/02 14:00:10;;;;;;;7.57;5.87;;;;;;;;;;5035169;28;20183;-66
2023/03/02 14:02:36;;;;;;;8.67;6.07;;;;;;;;;;5034557;28;20179;-63
2023/03/02 14:05:02;;;;;;;7.63;5.37;;;;;;;;;;5016979;28;20190;-66
2023/03/02 14:07:28;;;;;;;5.53;4.33;;;;;;;;;;5016913;28;20186;-64
2023/03/02 14:09:54;;;;;;;7.43;5.70;;;;;;;;;;5034904;28;20696;-65
2023/03/02 14:12:24;;;;;;;6.87;4.67;;;;;;;;;;5016888;28;20203;-65
2023/03/02 14:14:51;;;;;;;10.03;7.07;;;;;;;;;;5034651;28;20179;-66
2023/03/02 14:17:21;;;;;;;8.20;6.30;;;;;;;;;;5016974;28;20179;-64
2023/03/02 14:19:51;;;;;;;11.13;6.83;;;;;;;;;;5016643;28;20237;-65
2023/03/02 14:22:17;;;;;;;7.40;6.37;;;;;;;;;;5016576;28;20692;-65
2023/03/02 14:24:44;;;;;;;7.90;5.40;;;;;;;;;;5034517;28;20638;-65
2023/03/02 14:27:10;;;;;;;6.40;4.50;;;;;;;;;;5034580;28;20172;-64
2023/03/02 14:29:38;;;;;;;9.20;6.90;;;;;;;;;;5034302;28;20297;-65
2023/03/02 14:32:05;;;;;;;7.00;6.30;;;;;;;;;;5016409;28;20745;-65
2023/03/02 14:34:31;;;;;;;9.40;6.30;;;;;;;;;;5034039;28;20254;-64
2023/03/02 14:36:58;;;;;;;8.50;6.47;;;;;;;;;;5034073;28;20180;-66
2023/03/02 14:39:37;;;;;;;7.00;4.73;;;;;;;;;;5034365;28;20179;-65